Time;durP1;ratioP1;P1;durP2;ratioP2;P2;SDS_P1;SDS_P2;PMS_P1;PMS_P2;Temp;Humidity;BMP_temperature;BMP_pressure;BME280_temperature;BME280_humidity;BME280_pressure;Samples;Min_cycle;Max_cycle;Signal;HPM_P1;HPM_P2
2022/04/25 00:00:36;;;;;;;12.77;7.60;;;8.90;99.90;;;;;;5033078;28;20223;-75
2022/04/25 00:03:20;;;;;;;14.13;8.00;;;8.90;99.90;;;;;;5035073;28;20215;-76
2022/04/25 00:06:05;;;;;;;13.50;9.52;;;8.90;99.90;;;;;;5037984;28;20409;-75
2022/04/25 00:08:49;;;;;;;11.80;7.90;;;8.80;99.90;;;;;;5034913;28;20199;-75
2022/04/25 00:11:33;;;;;;;14.00;8.77;;;8.80;99.90;;;;;;5031414;28;20280;-76
2022/04/25 00:14:19;;;;;;;13.03;8.43;;;8.80;99.90;;;;;;5035168;28;20720;-76
2022/04/25 00:17:04;;;;;;;12.27;7.63;;;8.80;99.90;;;;;;5037296;28;20311;-76
2022/04/25 00:19:48;;;;;;;13.90;8.30;;;8.80;99.90;;;;;;5036937;28;20215;-75
2022/04/25 00:22:33;;;;;;;14.45;9.48;;;8.80;99.90;;;;;;5039235;28;20457;-74
2022/04/25 00:25:17;;;;;;;14.68;10.07;;;8.80;99.90;;;;;;5039705;28;20470;-77
2022/04/25 00:28:03;;;;;;;11.73;8.50;;;8.80;99.90;;;;;;5040294;28;20198;-76
2022/04/25 00:30:47;;;;;;;13.97;8.40;;;8.80;99.90;;;;;;5040354;28;20223;-74
2022/04/25 00:33:31;;;;;;;10.63;7.83;;;8.80;99.90;;;;;;5035417;28;20199;-75
2022/04/25 00:36:16;;;;;;;13.67;8.13;;;8.80;99.90;;;;;;5053305;28;20304;-74
2022/04/25 00:39:00;;;;;;;11.63;7.83;;;8.80;99.90;;;;;;5034321;28;20190;-75
2022/04/25 00:41:45;;;;;;;13.43;8.43;;;8.80;99.90;;;;;;5038212;28;20211;-76
2022/04/25 00:44:29;;;;;;;16.65;11.00;;;8.70;99.90;;;;;;5040356;28;20453;-76
2022/04/25 00:47:14;;;;;;;13.57;9.23;;;8.70;99.90;;;;;;5036030;28;20245;-75
2022/04/25 00:49:59;;;;;;;12.57;8.00;;;8.60;99.90;;;;;;5041247;28;20230;-74
2022/04/25 00:52:43;;;;;;;11.90;7.83;;;8.60;99.90;;;;;;5037014;28;20202;-75
2022/04/25 00:55:29;;;;;;;14.87;8.67;;;8.60;99.90;;;;;;5052862;28;20246;-74
2022/04/25 00:58:13;;;;;;;13.70;8.93;;;8.60;99.90;;;;;;5039358;28;20191;-75
2022/04/25 01:00:58;;;;;;;15.73;8.43;;;8.60;99.90;;;;;;5038833;28;20387;-75
2022/04/25 01:03:42;;;;;;;16.25;9.77;;;8.50;99.90;;;;;;5040570;28;20987;-74
2022/04/25 01:06:26;;;;;;;17.30;9.23;;;8.50;99.90;;;;;;5036664;28;20242;-75
2022/04/25 01:09:10;;;;;;;14.73;8.83;;;8.50;99.90;;;;;;5038487;28;20229;-74
2022/04/25 01:11:58;;;;;;;17.00;8.60;;;8.50;99.90;;;;;;5039011;28;20242;-75
2022/04/25 01:14:43;;;;;;;14.17;8.77;;;8.50;99.90;;;;;;5034654;28;20248;-75
2022/04/25 01:17:28;;;;;;;17.03;8.70;;;8.50;99.90;;;;;;5039653;28;20647;-75
2022/04/25 01:20:12;;;;;;;12.00;8.73;;;8.50;99.90;;;;;;5052903;28;20277;-75
2022/04/25 01:27:15;;;;;;;15.67;8.53;;;8.40;99.90;;;;;;5042842;28;20281;-75
2022/04/25 01:29:11;;;;;;;17.97;8.43;;;8.30;99.90;;;;;;5037198;28;20279;-75
2022/04/25 01:31:55;;;;;;;15.03;8.23;;;8.40;99.90;;;;;;5036549;28;20275;-75
2022/04/25 01:34:40;;;;;;;13.70;9.43;;;8.40;99.90;;;;;;5041526;28;20245;-74
2022/04/25 01:37:24;;;;;;;15.03;8.93;;;8.30;99.90;;;;;;5038392;28;20207;-74
2022/04/25 01:40:10;;;;;;;12.40;7.93;;;8.30;99.90;;;;;;5060558;28;20282;-75
2022/04/25 01:43:13;;;;;;;12.73;9.27;;;8.30;99.90;;;;;;5045269;28;20222;-75
2022/04/25 01:45:58;;;;;;;14.20;8.90;;;8.30;99.90;;;;;;5062165;28;20202;-74
2022/04/25 01:48:45;;;;;;;14.10;8.50;;;8.30;99.90;;;;;;5047466;28;20199;-74
2022/04/25 01:51:30;;;;;;;17.83;8.90;;;8.30;99.90;;;;;;5041345;28;20279;-76
2022/04/25 01:54:22;;;;;;;13.17;8.70;;;8.40;99.90;;;;;;5038112;28;20227;-75
2022/04/25 01:57:06;;;;;;;16.47;9.20;;;8.30;99.90;;;;;;5036936;28;20243;-75
2022/04/25 01:59:51;;;;;;;17.70;9.00;;;8.40;99.90;;;;;;5039164;28;20214;-77
2022/04/25 02:02:36;;;;;;;13.33;8.27;;;8.30;99.90;;;;;;5034926;28;20180;-75
2022/04/25 02:05:20;;;;;;;15.00;8.40;;;8.30;99.90;;;;;;5041785;28;20311;-75
2022/04/25 02:08:05;;;;;;;13.33;8.53;;;8.30;99.90;;;;;;5039117;28;20191;-75
2022/04/25 02:11:19;;;;;;;14.70;8.53;;;8.30;99.90;;;;;;5038928;28;20231;-75
2022/04/25 02:13:54;;;;;;;17.03;8.43;;;8.30;99.90;;;;;;5050091;28;20202;-74
2022/04/25 02:16:39;;;;;;;14.57;8.40;;;8.30;99.90;;;;;;5039455;28;20195;-76
2022/04/25 02:19:23;;;;;;;15.07;7.90;;;8.30;99.90;;;;;;5039574;28;20210;-74
2022/04/25 02:22:09;;;;;;;12.70;7.63;;;8.30;99.90;;;;;;5047166;28;20179;-76
2022/04/25 02:24:54;;;;;;;13.93;8.50;;;8.20;99.90;;;;;;5051079;28;20291;-75
2022/04/25 02:27:38;;;;;;;10.73;7.83;;;8.20;99.90;;;;;;5033812;28;20252;-74
2022/04/25 02:30:23;;;;;;;14.90;7.67;;;8.20;99.90;;;;;;5055361;28;20351;-75
2022/04/25 02:33:07;;;;;;;14.33;8.23;;;8.10;99.90;;;;;;5037132;28;20249;-75
2022/04/25 02:35:52;;;;;;;15.00;8.03;;;8.20;99.90;;;;;;5042603;28;20212;-75
2022/04/25 02:38:37;;;;;;;14.43;7.93;;;8.10;99.90;;;;;;5015905;28;20171;-75
2022/04/25 02:41:21;;;;;;;10.57;7.37;;;8.10;99.90;;;;;;5036887;28;20195;-75
2022/04/25 02:44:05;;;;;;;12.00;7.13;;;8.20;99.90;;;;;;5041492;28;20197;-76
2022/04/25 02:46:50;;;;;;;11.30;7.47;;;8.10;99.90;;;;;;5041317;28;20199;-75
2022/04/25 02:49:37;;;;;;;16.50;7.33;;;8.10;99.90;;;;;;5039073;28;20303;-77
2022/04/25 02:52:21;;;;;;;10.20;7.23;;;8.10;99.90;;;;;;5052309;28;20242;-75
2022/04/25 02:55:06;;;;;;;10.70;6.70;;;8.00;99.90;;;;;;5032576;28;20228;-76
2022/04/25 02:57:50;;;;;;;10.20;6.40;;;8.00;99.90;;;;;;5040213;28;20195;-75
2022/04/25 03:00:35;;;;;;;11.93;7.60;;;8.10;99.90;;;;;;5036963;28;20226;-75
2022/04/25 03:03:20;;;;;;;14.07;7.40;;;8.10;99.90;;;;;;5036451;28;20237;-76
2022/04/25 03:06:08;;;;;;;8.67;6.57;;;8.10;99.90;;;;;;5040082;28;20240;-76
2022/04/25 03:08:53;;;;;;;11.63;7.60;;;8.10;99.90;;;;;;5037676;28;20207;-76
2022/04/25 03:11:37;;;;;;;14.10;6.50;;;8.10;99.90;;;;;;5036805;28;20286;-74
2022/04/25 03:14:22;;;;;;;8.80;6.60;;;8.10;99.90;;;;;;5051425;28;20258;-76
2022/04/25 03:17:07;;;;;;;13.47;6.73;;;8.10;99.90;;;;;;5038609;28;20194;-76
2022/04/25 03:19:51;;;;;;;11.97;7.27;;;8.00;99.90;;;;;;5043669;28;20261;-75
2022/04/25 03:22:35;;;;;;;8.87;6.27;;;8.00;99.90;;;;;;5052475;28;20199;-75
2022/04/25 03:25:19;;;;;;;9.67;6.00;;;8.00;99.90;;;;;;5032727;28;20203;-76
2022/04/25 03:28:04;;;;;;;13.07;6.70;;;8.00;99.90;;;;;;5050177;28;20215;-75
2022/04/25 03:30:48;;;;;;;13.30;6.63;;;8.00;99.90;;;;;;5024734;28;20236;-76
2022/04/25 03:33:34;;;;;;;9.37;6.77;;;8.00;99.90;;;;;;5039627;28;20202;-75
2022/04/25 03:36:18;;;;;;;11.70;6.60;;;8.00;99.90;;;;;;5044276;28;20293;-75
2022/04/25 03:39:06;;;;;;;12.23;6.23;;;8.00;99.90;;;;;;5045384;28;20246;-76
2022/04/25 03:41:50;;;;;;;9.67;6.03;;;7.90;99.90;;;;;;5042632;28;20183;-76
2022/04/25 03:44:34;;;;;;;10.10;6.60;;;7.90;99.90;;;;;;5043919;28;20210;-75
2022/04/25 03:47:18;;;;;;;10.47;6.07;;;8.00;99.90;;;;;;5037750;28;20218;-76
2022/04/25 03:50:04;;;;;;;10.90;7.00;;;8.00;99.90;;;;;;5055553;28;20245;-76
2022/04/25 03:52:49;;;;;;;13.17;6.13;;;8.00;99.90;;;;;;5022430;28;20187;-74
2022/04/25 03:58:37;;;;;;;9.53;6.70;;;7.90;99.90;;;;;;5028312;28;20198;-75
2022/04/25 04:01:22;;;;;;;10.40;6.20;;;8.00;99.90;;;;;;5028207;28;20767;-74
2022/04/25 04:04:07;;;;;;;10.03;6.60;;;8.00;99.90;;;;;;5027200;28;20203;-76
2022/04/25 04:06:51;;;;;;;14.17;6.63;;;8.00;99.90;;;;;;5038199;28;20172;-76
2022/04/25 04:09:49;;;;;;;10.13;6.33;;;8.00;99.90;;;;;;5036667;28;20222;-75
2022/04/25 04:12:36;;;;;;;12.97;6.60;;;7.90;99.90;;;;;;5038686;28;20286;-76
2022/04/25 04:15:20;;;;;;;10.83;6.33;;;8.00;99.90;;;;;;5036174;28;20279;-76
2022/04/25 04:18:08;;;;;;;11.33;6.33;;;8.00;99.90;;;;;;5039636;28;20187;-75
2022/04/25 04:20:53;;;;;;;14.07;6.20;;;7.90;99.90;;;;;;5039409;28;20267;-74
2022/04/25 04:23:38;;;;;;;9.67;6.27;;;7.90;99.90;;;;;;5040301;28;20203;-74
2022/04/25 04:26:23;;;;;;;10.13;6.63;;;7.90;99.90;;;;;;5052065;28;20195;-75
2022/04/25 04:29:08;;;;;;;11.70;6.30;;;7.90;99.90;;;;;;5062205;28;20180;-75
2022/04/25 04:31:52;;;;;;;10.20;6.17;;;8.00;99.90;;;;;;5046324;28;20195;-75
2022/04/25 04:34:37;;;;;;;10.70;6.60;;;8.00;99.90;;;;;;5066080;28;20354;-75
2022/04/25 04:37:21;;;;;;;9.50;6.60;;;8.00;99.90;;;;;;5036359;28;20299;-76
2022/04/25 04:43:11;;;;;;;9.03;6.63;;;8.00;99.90;;;;;;5045944;28;20305;-77
2022/04/25 04:45:55;;;;;;;10.87;6.33;;;7.90;99.90;;;;;;5036021;28;20636;-76
2022/04/25 04:48:40;;;;;;;10.70;6.67;;;7.90;99.90;;;;;;5039800;28;20210;-75
2022/04/25 04:51:24;;;;;;;9.63;6.60;;;7.90;99.90;;;;;;5038678;28;20235;-76
2022/04/25 04:54:09;;;;;;;9.13;6.80;;;7.90;99.90;;;;;;5031140;28;20187;-77
2022/04/25 04:56:54;;;;;;;8.60;6.67;;;7.80;99.90;;;;;;5034512;28;20222;-76
2022/04/25 04:59:38;;;;;;;10.60;6.50;;;7.90;99.90;;;;;;5037753;28;20219;-75
2022/04/25 05:02:22;;;;;;;11.00;6.40;;;7.80;99.90;;;;;;5033800;28;20277;-76
2022/04/25 05:05:22;;;;;;;9.73;7.07;;;7.90;99.90;;;;;;5043655;28;20210;-76
2022/04/25 05:08:06;;;;;;;12.47;6.57;;;7.90;99.90;;;;;;5038019;28;20191;-75
2022/04/25 05:10:51;;;;;;;10.87;6.30;;;7.90;99.90;;;;;;5053066;28;20242;-75
2022/04/25 05:13:36;;;;;;;11.07;6.60;;;8.00;99.90;;;;;;5044751;28;20258;-75
2022/04/25 05:16:21;;;;;;;11.87;6.67;;;7.90;99.90;;;;;;5036236;28;20211;-75
2022/04/25 05:19:05;;;;;;;11.13;7.13;;;7.90;99.90;;;;;;5037457;28;20195;-75
2022/04/25 05:21:50;;;;;;;13.37;7.17;;;7.90;99.90;;;;;;5033499;28;20188;-76
2022/04/25 05:24:34;;;;;;;9.70;6.80;;;7.90;99.90;;;;;;5039393;28;20602;-76
2022/04/25 05:27:19;;;;;;;9.60;6.77;;;7.90;99.90;;;;;;5027595;28;20188;-77
2022/04/25 05:30:03;;;;;;;9.27;6.30;;;8.00;99.90;;;;;;5042874;28;20219;-75
2022/04/25 05:32:53;;;;;;;12.70;7.63;;;8.00;99.90;;;;;;5043685;28;20195;-75
2022/04/25 05:35:38;;;;;;;10.77;6.80;;;8.00;99.90;;;;;;5027259;28;20234;-75
2022/04/25 05:38:22;;;;;;;10.23;6.50;;;8.00;99.90;;;;;;5039224;28;20327;-75
2022/04/25 05:41:09;;;;;;;10.63;6.20;;;8.00;99.90;;;;;;5036580;28;20780;-76
2022/04/25 05:43:54;;;;;;;10.50;6.83;;;8.00;99.90;;;;;;5035727;28;20292;-74
2022/04/25 05:46:38;;;;;;;12.70;6.90;;;8.00;99.90;;;;;;5042268;28;20602;-75
2022/04/25 05:52:26;;;;;;;11.23;6.70;;;8.00;99.90;;;;;;5052509;28;20215;-76
2022/04/25 05:55:10;;;;;;;9.57;6.80;;;8.00;99.90;;;;;;5038413;28;20291;-76
2022/04/25 05:57:55;;;;;;;9.67;6.87;;;8.00;99.90;;;;;;5049898;28;20428;-76
2022/04/25 06:00:40;;;;;;;10.87;7.13;;;7.90;99.90;;;;;;5054972;28;20571;-76
2022/04/25 06:03:24;;;;;;;9.73;6.97;;;7.90;99.90;;;;;;5036438;28;20251;-75
2022/04/25 06:06:08;;;;;;;9.83;6.43;;;7.90;99.90;;;;;;5035756;28;20223;-76
2022/04/25 06:08:52;;;;;;;12.13;6.60;;;8.00;99.90;;;;;;5036118;28;20198;-75
2022/04/25 06:11:37;;;;;;;9.83;6.20;;;8.00;99.90;;;;;;5035469;28;20207;-75
2022/04/25 06:14:21;;;;;;;14.80;6.43;;;7.90;99.90;;;;;;5038942;28;20179;-76
2022/04/25 06:17:06;;;;;;;11.90;6.80;;;7.90;99.90;;;;;;5055781;28;20721;-75
2022/04/25 06:19:51;;;;;;;13.13;6.23;;;7.90;99.90;;;;;;5055704;28;20210;-75
2022/04/25 06:22:36;;;;;;;16.33;6.67;;;7.90;99.90;;;;;;5037034;28;20279;-76
2022/04/25 06:25:21;;;;;;;10.53;6.40;;;7.90;99.90;;;;;;5016095;28;20172;-75
2022/04/25 06:28:05;;;;;;;8.93;6.20;;;8.00;99.90;;;;;;5064421;28;20194;-76
2022/04/25 06:30:49;;;;;;;8.83;5.90;;;8.00;99.90;;;;;;5055394;28;20632;-75
2022/04/25 06:33:33;;;;;;;9.53;6.17;;;8.00;99.90;;;;;;5055444;28;20718;-76
2022/04/25 06:36:18;;;;;;;9.07;6.37;;;8.00;99.90;;;;;;5043183;28;20291;-77
2022/04/25 06:39:03;;;;;;;10.57;6.77;;;8.10;99.90;;;;;;5036810;28;20195;-76
2022/04/25 06:41:47;;;;;;;10.93;6.33;;;8.00;99.90;;;;;;5037793;28;20211;-77
2022/04/25 06:44:32;;;;;;;11.40;6.40;;;8.10;99.90;;;;;;5037009;28;20270;-77
2022/04/25 06:47:16;;;;;;;14.73;6.50;;;8.10;99.90;;;;;;5037249;28;20176;-77
2022/04/25 06:50:00;;;;;;;10.03;6.07;;;8.10;99.90;;;;;;5037393;28;20210;-77
2022/04/25 06:52:45;;;;;;;7.60;5.70;;;8.10;99.90;;;;;;5037525;28;20172;-77
2022/04/25 06:55:29;;;;;;;9.73;6.10;;;8.10;99.90;;;;;;5035845;28;20268;-77
2022/04/25 06:58:13;;;;;;;10.17;6.07;;;8.20;99.90;;;;;;5036057;28;20170;-76
2022/04/25 07:00:58;;;;;;;11.13;6.10;;;8.20;99.90;;;;;;5036332;28;20219;-76
2022/04/25 07:03:42;;;;;;;8.23;5.57;;;8.20;99.90;;;;;;5037572;28;20207;-76
2022/04/25 07:06:27;;;;;;;9.13;6.03;;;8.20;99.90;;;;;;5037502;28;20234;-77
2022/04/25 07:09:14;;;;;;;7.23;5.73;;;8.20;99.90;;;;;;5045591;28;20303;-78
2022/04/25 07:12:00;;;;;;;9.10;5.73;;;8.30;99.90;;;;;;5041711;28;20203;-77
2022/04/25 07:14:45;;;;;;;6.77;5.50;;;8.30;99.90;;;;;;5054033;28;20213;-77
2022/04/25 07:17:30;;;;;;;9.37;5.60;;;8.30;99.90;;;;;;5036935;28;20199;-75
2022/04/25 07:20:18;;;;;;;10.67;5.40;;;8.30;99.90;;;;;;5034809;28;20211;-75
2022/04/25 07:29:08;;;;;;;12.53;5.93;;;8.30;99.90;;;;;;5034263;28;20672;-76
2022/04/25 07:31:53;;;;;;;9.63;5.73;;;8.30;99.90;;;;;;5032799;28;20222;-76
2022/04/25 07:34:39;;;;;;;9.00;5.47;;;8.30;99.90;;;;;;5046993;28;20245;-75
2022/04/25 07:37:23;;;;;;;9.30;5.43;;;8.30;99.90;;;;;;5051449;28;20219;-76
2022/04/25 07:40:08;;;;;;;9.63;6.33;;;8.40;99.90;;;;;;5033634;28;20226;-75
2022/04/25 07:42:55;;;;;;;8.43;6.00;;;8.30;99.90;;;;;;5039166;28;20183;-76
2022/04/25 07:45:40;;;;;;;7.50;5.77;;;8.30;99.90;;;;;;5035575;28;20242;-75
2022/04/25 07:48:25;;;;;;;8.50;5.47;;;8.40;99.90;;;;;;5046807;28;20195;-75
2022/04/25 07:51:09;;;;;;;10.83;5.87;;;8.50;99.90;;;;;;5036615;28;20271;-76
2022/04/25 07:53:53;;;;;;;11.07;6.40;;;8.50;99.90;;;;;;5037595;28;20199;-76
2022/04/25 07:56:38;;;;;;;9.90;6.07;;;8.50;99.90;;;;;;5052919;28;20225;-76
2022/04/25 07:59:24;;;;;;;8.10;6.03;;;8.50;99.90;;;;;;5040876;28;20207;-75
2022/04/25 08:02:09;;;;;;;11.47;6.60;;;8.50;99.90;;;;;;5036149;28;20330;-77
2022/04/25 08:04:53;;;;;;;12.57;6.60;;;8.50;99.90;;;;;;5043033;28;20173;-75
2022/04/25 08:07:38;;;;;;;7.57;5.60;;;8.50;99.90;;;;;;5042370;28;20634;-76
2022/04/25 08:10:22;;;;;;;12.17;6.30;;;8.40;99.90;;;;;;5039894;28;20229;-76
2022/04/25 08:19:15;;;;;;;11.60;5.93;;;8.50;99.90;;;;;;5039527;28;20195;-76
2022/04/25 08:22:00;;;;;;;11.10;6.20;;;8.60;99.90;;;;;;5041251;28;20191;-76
2022/04/25 08:24:44;;;;;;;13.10;7.10;;;8.60;99.90;;;;;;5038374;28;20271;-76
2022/04/25 08:27:28;;;;;;;11.03;5.90;;;8.60;99.90;;;;;;5043013;28;20195;-76
2022/04/25 08:30:13;;;;;;;9.80;6.07;;;8.60;99.90;;;;;;5052601;28;20249;-76
2022/04/25 08:33:00;;;;;;;12.57;6.63;;;8.60;99.90;;;;;;5044384;28;20234;-76
2022/04/25 08:35:46;;;;;;;13.33;6.40;;;8.60;99.90;;;;;;5043189;28;20210;-75
2022/04/25 08:38:31;;;;;;;11.90;6.27;;;8.60;99.90;;;;;;5046454;28;20167;-75
2022/04/25 08:41:20;;;;;;;11.63;6.10;;;8.70;99.90;;;;;;5045413;28;20285;-76
2022/04/25 08:44:05;;;;;;;13.53;6.63;;;8.70;99.90;;;;;;5044126;28;20313;-76
2022/04/25 08:46:52;;;;;;;13.93;6.90;;;8.70;99.90;;;;;;5045669;28;20255;-75
2022/04/25 08:49:37;;;;;;;9.43;5.77;;;8.70;99.90;;;;;;5045037;28;20291;-76
2022/04/25 08:52:22;;;;;;;10.77;5.90;;;8.70;99.90;;;;;;5046141;28;20180;-76
2022/04/25 08:55:07;;;;;;;10.50;5.83;;;8.70;99.90;;;;;;5043900;28;20253;-76
2022/04/25 08:57:53;;;;;;;10.07;5.90;;;8.70;99.90;;;;;;5047211;28;20174;-76
2022/04/25 09:00:37;;;;;;;11.63;5.97;;;8.70;99.90;;;;;;5060229;28;20571;-76
2022/04/25 09:03:22;;;;;;;9.10;5.73;;;8.70;99.90;;;;;;5045461;28;20187;-76
2022/04/25 09:06:06;;;;;;;12.33;5.97;;;8.80;99.90;;;;;;5041734;28;20296;-75
2022/04/25 09:08:51;;;;;;;12.30;6.63;;;8.80;99.90;;;;;;5047909;28;20187;-75
2022/04/25 09:14:40;;;;;;;10.03;6.47;;;8.70;99.90;;;;;;5041398;28;20249;-75
2022/04/25 09:17:24;;;;;;;11.17;6.30;;;8.80;99.90;;;;;;5043276;28;20277;-74
2022/04/25 09:20:09;;;;;;;9.83;6.10;;;8.80;99.90;;;;;;5044015;28;20585;-75
2022/04/25 09:22:54;;;;;;;12.80;6.47;;;8.80;99.90;;;;;;5044499;28;20198;-74
2022/04/25 09:25:39;;;;;;;10.07;5.97;;;8.70;99.90;;;;;;5042252;28;20218;-74
2022/04/25 09:28:23;;;;;;;10.90;6.93;;;8.70;99.90;;;;;;5045378;28;20178;-74
2022/04/25 09:31:13;;;;;;;11.73;5.90;;;8.70;99.90;;;;;;5043021;28;20234;-76
2022/04/25 09:34:14;;;;;;;9.60;6.23;;;8.70;99.90;;;;;;5043241;28;20251;-74
2022/04/25 09:36:59;;;;;;;11.57;6.03;;;8.70;99.90;;;;;;5046738;28;20202;-75
2022/04/25 09:39:44;;;;;;;9.73;6.10;;;8.70;99.90;;;;;;5044316;28;20206;-74
2022/04/25 09:42:28;;;;;;;11.30;5.93;;;8.70;99.90;;;;;;5046684;28;20271;-75
2022/04/25 09:45:13;;;;;;;12.90;5.53;;;8.70;99.90;;;;;;5041895;28;20354;-74
2022/04/25 09:47:58;;;;;;;7.87;6.10;;;8.70;99.90;;;;;;5043304;28;20199;-74
2022/04/25 09:50:45;;;;;;;10.50;5.93;;;8.70;99.90;;;;;;5041697;28;20211;-75
2022/04/25 09:53:50;;;;;;;10.17;6.27;;;8.70;99.90;;;;;;5040356;28;20310;-74
2022/04/25 09:56:35;;;;;;;10.30;6.17;;;8.70;99.90;;;;;;5044343;28;20215;-74
2022/04/25 09:59:21;;;;;;;8.63;5.47;;;8.70;99.90;;;;;;5056498;28;20255;-74
2022/04/25 10:02:07;;;;;;;12.30;7.07;;;8.80;99.90;;;;;;5044886;28;20259;-76
2022/04/25 10:04:51;;;;;;;10.63;6.23;;;8.80;99.90;;;;;;5040451;28;20195;-75
2022/04/25 10:07:35;;;;;;;12.57;6.13;;;8.90;99.90;;;;;;5045731;28;20179;-74
2022/04/25 10:10:20;;;;;;;10.17;5.67;;;8.80;99.90;;;;;;5042040;28;20227;-75
2022/04/25 10:13:04;;;;;;;11.17;6.13;;;8.90;99.90;;;;;;5054617;28;20183;-74
2022/04/25 10:15:49;;;;;;;7.70;5.47;;;8.90;99.90;;;;;;5043400;28;20229;-75
2022/04/25 10:18:33;;;;;;;8.57;5.87;;;8.90;99.90;;;;;;5045418;28;20183;-75
2022/04/25 10:21:17;;;;;;;11.57;6.07;;;8.80;99.90;;;;;;5049759;28;20226;-74
2022/04/25 10:24:02;;;;;;;11.27;6.30;;;8.80;99.90;;;;;;5040688;28;20219;-75
2022/04/25 10:26:47;;;;;;;12.27;6.00;;;8.90;99.90;;;;;;5048097;28;20180;-75
2022/04/25 10:29:36;;;;;;;10.40;5.90;;;8.80;99.90;;;;;;5044597;28;20214;-75
2022/04/25 10:32:25;;;;;;;10.00;6.50;;;8.80;99.90;;;;;;5042163;28;20704;-75
2022/04/25 10:35:15;;;;;;;15.20;6.80;;;8.90;99.90;;;;;;5050986;28;20246;-75
2022/04/25 10:37:59;;;;;;;10.63;5.93;;;9.00;99.90;;;;;;5043711;28;20184;-75
2022/04/25 10:47:06;;;;;;;11.17;5.80;;;9.10;99.90;;;;;;5050558;28;20207;-75
2022/04/25 10:49:53;;;;;;;11.77;6.37;;;9.10;99.90;;;;;;5064425;28;20227;-74
2022/04/25 10:52:42;;;;;;;12.30;6.63;;;9.20;99.90;;;;;;5053884;28;20189;-75
2022/04/25 10:55:30;;;;;;;11.37;6.53;;;9.20;99.90;;;;;;5048848;28;20261;-75
2022/04/25 10:58:16;;;;;;;10.60;6.10;;;9.20;99.90;;;;;;5052441;28;20315;-75
2022/04/25 11:01:00;;;;;;;9.07;5.97;;;9.30;99.90;;;;;;5045129;28;20230;-75
2022/04/25 11:04:03;;;;;;;9.23;5.67;;;9.30;99.90;;;;;;5047985;28;20184;-75
2022/04/25 11:06:48;;;;;;;9.07;5.63;;;9.30;99.90;;;;;;5047553;28;20673;-75
2022/04/25 11:09:38;;;;;;;12.43;6.10;;;9.30;99.90;;;;;;5045913;28;20213;-75
2022/04/25 11:12:58;;;;;;;10.47;5.73;;;9.30;99.90;;;;;;5043642;28;20685;-75
2022/04/25 11:15:44;;;;;;;9.40;5.70;;;9.30;99.90;;;;;;5058142;28;20214;-76
2022/04/25 11:18:33;;;;;;;12.60;5.77;;;9.30;99.90;;;;;;5042016;28;20301;-75
2022/04/25 11:21:32;;;;;;;9.27;5.57;;;9.40;99.90;;;;;;5059421;28;20259;-75
2022/04/25 11:24:37;;;;;;;10.37;5.50;;;9.40;99.90;;;;;;5049183;28;20194;-75
2022/04/25 11:27:22;;;;;;;8.33;5.50;;;9.40;99.90;;;;;;5057101;28;20199;-76
2022/04/25 11:30:15;;;;;;;8.60;5.90;;;9.50;99.90;;;;;;5041703;28;20218;-75
2022/04/25 11:33:08;;;;;;;10.00;5.47;;;9.50;99.90;;;;;;5042531;28;20198;-76
2022/04/25 11:35:59;;;;;;;9.37;5.97;;;9.60;99.90;;;;;;5041370;28;20200;-76
2022/04/25 11:41:49;;;;;;;7.17;4.97;;;9.60;99.90;;;;;;5042283;28;20702;-76
2022/04/25 11:44:38;;;;;;;8.67;5.57;;;9.70;99.90;;;;;;5041827;28;20171;-76
2022/04/25 11:47:22;;;;;;;6.43;5.10;;;9.70;99.90;;;;;;5045143;28;20202;-76
2022/04/25 11:50:12;;;;;;;9.13;5.50;;;9.80;99.90;;;;;;5043050;28;20211;-76
2022/04/25 11:52:57;;;;;;;10.77;5.80;;;9.80;99.90;;;;;;5037946;28;20230;-76
2022/04/25 11:55:41;;;;;;;10.53;5.50;;;9.80;99.90;;;;;;5041227;28;20203;-76
2022/04/25 11:58:29;;;;;;;10.53;5.57;;;9.80;99.90;;;;;;5038580;28;20241;-76
2022/04/25 12:01:13;;;;;;;9.03;6.00;;;9.80;99.90;;;;;;5036337;28;20212;-76
2022/04/25 12:04:30;;;;;;;13.47;6.30;;;9.90;99.90;;;;;;5040428;28;20199;-75
2022/04/25 12:07:14;;;;;;;11.57;5.67;;;10.00;99.90;;;;;;5046233;28;20211;-76
2022/04/25 12:16:09;;;;;;;8.47;5.57;;;10.20;99.90;;;;;;5041886;28;20254;-75
2022/04/25 12:18:53;;;;;;;8.67;5.70;;;10.30;99.90;;;;;;5046093;28;20222;-76
2022/04/25 12:21:40;;;;;;;10.03;5.73;;;10.40;99.90;;;;;;5058974;28;20273;-76
2022/04/25 12:24:24;;;;;;;7.57;5.57;;;10.40;99.90;;;;;;5045167;28;20626;-76
2022/04/25 12:27:10;;;;;;;8.93;5.67;;;10.50;99.90;;;;;;5048493;28;20191;-77
2022/04/25 12:30:08;;;;;;;12.77;5.63;;;10.50;99.90;;;;;;5044374;28;20210;-75
2022/04/25 12:33:08;;;;;;;8.70;5.60;;;10.60;99.90;;;;;;5043916;28;20199;-76
2022/04/25 12:36:22;;;;;;;7.60;5.20;;;10.60;99.90;;;;;;5041888;28;20266;-76
2022/04/25 12:39:10;;;;;;;7.37;4.57;;;10.60;99.90;;;;;;5058377;28;20241;-76
2022/04/25 12:41:57;;;;;;;8.83;5.40;;;10.70;99.90;;;;;;5048858;28;20589;-76
2022/04/25 12:44:57;;;;;;;7.17;4.60;;;10.80;99.90;;;;;;5046547;28;20182;-76
2022/04/25 12:47:45;;;;;;;6.53;4.60;;;10.80;99.90;;;;;;5049353;28;20198;-76
2022/04/25 12:50:44;;;;;;;7.73;5.53;;;10.90;99.90;;;;;;5048896;28;20282;-76
2022/04/25 12:53:39;;;;;;;6.97;5.07;;;10.90;99.90;;;;;;5048382;28;20179;-76
2022/04/25 12:56:30;;;;;;;8.07;5.10;;;11.00;99.90;;;;;;5057580;28;20212;-75
2022/04/25 12:59:23;;;;;;;9.53;5.53;;;11.10;99.90;;;;;;5057027;28;20211;-75
2022/04/25 13:02:11;;;;;;;7.27;5.30;;;11.20;99.90;;;;;;5048871;28;20234;-75
2022/04/25 13:04:57;;;;;;;6.33;4.83;;;11.20;99.90;;;;;;5046652;28;20186;-75
2022/04/25 13:07:48;;;;;;;7.10;4.87;;;11.20;99.90;;;;;;5044141;28;20171;-76
2022/04/25 13:10:32;;;;;;;7.63;5.27;;;11.20;99.90;;;;;;5044934;28;20230;-76
2022/04/25 13:13:16;;;;;;;6.67;5.13;;;11.30;99.90;;;;;;5044187;28;20231;-75
2022/04/25 13:16:00;;;;;;;6.97;4.60;;;11.30;99.90;;;;;;5042309;28;20206;-75
2022/04/25 13:18:45;;;;;;;7.80;5.47;;;11.30;99.90;;;;;;5046476;28;20170;-76
2022/04/25 13:21:30;;;;;;;6.13;5.23;;;11.30;99.90;;;;;;5048366;28;20187;-77
2022/04/25 13:24:14;;;;;;;9.17;5.33;;;11.40;99.90;;;;;;5045977;28;20186;-76
2022/04/25 13:26:59;;;;;;;8.53;5.43;;;11.50;99.90;;;;;;5046682;28;20175;-76
2022/04/25 13:29:44;;;;;;;7.87;4.97;;;11.60;99.90;;;;;;5045466;28;20211;-75
2022/04/25 13:32:29;;;;;;;5.50;4.40;;;11.60;99.90;;;;;;5046552;28;20191;-76
2022/04/25 13:35:14;;;;;;;7.20;4.63;;;11.70;99.90;;;;;;5048382;28;20257;-76
2022/04/25 13:37:58;;;;;;;11.47;5.63;;;11.80;99.90;;;;;;5058117;28;20192;-75
2022/04/25 13:40:42;;;;;;;8.80;5.03;;;11.90;99.90;;;;;;5044324;28;20303;-75
2022/04/25 13:43:27;;;;;;;8.97;5.10;;;12.10;99.90;;;;;;5044589;28;20170;-77
2022/04/25 13:46:12;;;;;;;6.47;5.20;;;12.20;99.90;;;;;;5045395;28;20183;-77
2022/04/25 13:48:56;;;;;;;8.30;5.10;;;12.20;99.90;;;;;;5046865;28;20273;-77
2022/04/25 13:51:41;;;;;;;5.47;4.87;;;12.30;99.90;;;;;;5043228;28;20243;-77
2022/04/25 13:54:25;;;;;;;7.73;5.03;;;12.30;99.90;;;;;;5044664;28;20221;-77
2022/04/25 13:57:11;;;;;;;10.13;4.80;;;12.30;99.90;;;;;;5046671;28;20198;-77
2022/04/25 13:59:55;;;;;;;8.73;5.17;;;12.40;99.90;;;;;;5046914;28;20261;-77
2022/04/25 14:05:45;;;;;;;7.30;4.83;;;12.50;99.90;;;;;;5042575;28;20207;-77
2022/04/25 14:08:29;;;;;;;7.00;5.13;;;12.60;99.90;;;;;;5044946;28;20237;-77
2022/04/25 14:11:14;;;;;;;11.10;5.27;;;12.60;99.90;;;;;;5046580;28;20226;-77
2022/04/25 14:13:59;;;;;;;7.93;5.60;;;12.70;99.90;;;;;;5047723;28;20195;-77
2022/04/25 14:16:43;;;;;;;10.40;5.60;;;12.70;99.90;;;;;;5052147;28;20228;-78
2022/04/25 14:19:27;;;;;;;9.47;5.53;;;12.80;99.90;;;;;;5045189;28;20237;-77
2022/04/25 14:22:11;;;;;;;7.70;6.40;;;12.80;99.90;;;;;;5055251;28;20476;-76
2022/04/25 14:24:55;;;;;;;12.70;6.10;;;12.90;99.90;;;;;;5048223;28;20277;-77
2022/04/25 14:27:40;;;;;;;9.60;6.10;;;12.90;99.90;;;;;;5040964;28;20404;-77
2022/04/25 14:30:24;;;;;;;8.25;6.38;;;13.00;99.90;;;;;;5044344;28;20402;-77
2022/04/25 14:33:09;;;;;;;7.50;5.60;;;13.20;99.90;;;;;;5034664;28;20190;-77
2022/04/25 14:35:53;;;;;;;8.00;5.90;;;13.20;99.90;;;;;;5036255;28;20303;-77
2022/04/25 14:38:37;;;;;;;9.23;5.90;;;13.20;99.90;;;;;;5040850;28;20283;-76
2022/04/25 14:41:22;;;;;;;7.27;5.70;;;13.20;99.90;;;;;;5040062;28;20214;-77
2022/04/25 14:44:09;;;;;;;7.27;6.07;;;13.30;99.90;;;;;;5036437;28;20297;-77
2022/04/25 14:46:54;;;;;;;7.80;5.63;;;13.30;99.90;;;;;;5040738;28;20285;-77
2022/04/25 14:55:47;;;;;;;8.20;5.80;;;13.40;99.90;;;;;;5038023;28;20261;-76
2022/04/25 14:58:32;;;;;;;6.70;5.80;;;13.40;99.90;;;;;;5041737;28;20183;-77
2022/04/25 15:01:16;;;;;;;8.90;6.13;;;13.40;99.90;;;;;;5036844;28;20214;-77
2022/04/25 15:04:00;;;;;;;9.87;6.60;;;13.50;99.90;;;;;;5041145;28;20222;-77
2022/04/25 15:06:44;;;;;;;8.43;5.90;;;13.50;99.90;;;;;;5037796;28;20241;-77
2022/04/25 15:09:29;;;;;;;9.53;5.83;;;13.50;99.90;;;;;;5037188;28;20227;-76
2022/04/25 15:12:13;;;;;;;9.20;5.27;;;13.60;99.90;;;;;;5052403;28;20261;-77
2022/04/25 15:14:58;;;;;;;9.60;6.00;;;13.70;99.90;;;;;;5035184;28;20250;-77
2022/04/25 15:17:43;;;;;;;9.30;5.40;;;13.70;99.90;;;;;;5039166;28;20182;-77